Time;durP1;ratioP1;P1;durP2;ratioP2;P2;SDS_P1;SDS_P2;PMS_P1;PMS_P2;Temp;Humidity;BMP_temperature;BMP_pressure;BME280_temperature;BME280_humidity;BME280_pressure;Samples;Min_cycle;Max_cycle;Signal;HPM_P1;HPM_P2
2023/07/15 00:03:00;;;;;;;11.00;8.70;;;;;;;13.82;67.44;99860.45;218250;1257;142095;-71
2023/07/15 00:08:05;;;;;;;19.20;11.20;;;;;;;13.71;67.76;99860.45;217823;1257;140183;-73
2023/07/15 00:13:13;;;;;;;13.50;8.50;;;;;;;13.66;67.85;99860.83;217628;1260;140392;-71
2023/07/15 00:18:17;;;;;;;7.60;6.70;;;;;;;13.61;68.09;99864.52;217713;1259;139676;-73
2023/07/15 00:23:21;;;;;;;9.30;5.60;;;;;;;13.54;68.12;99863.36;218460;1256;141718;-69
2023/07/15 00:28:24;;;;;;;9.10;6.20;;;;;;;13.43;68.40;99861.43;217994;1257;139434;-71
2023/07/15 00:33:28;;;;;;;6.90;5.50;;;;;;;13.38;68.65;99851.20;218430;1257;140616;-70
2023/07/15 00:38:31;;;;;;;9.60;6.50;;;;;;;13.30;68.72;99842.94;218181;1256;139800;-67
2023/07/15 00:44:02;;;;;;;9.70;6.40;;;;;;;13.26;69.11;99842.10;217430;1259;139447;-69
2023/07/15 00:49:22;;;;;;;6.20;5.30;;;;;;;13.22;69.36;99837.50;217957;1256;140512;-71
2023/07/15 00:54:25;;;;;;;9.10;5.10;;;;;;;13.24;69.75;99836.29;217660;1257;139813;-70
2023/07/15 00:59:30;;;;;;;8.90;6.10;;;;;;;13.27;70.40;99830.75;218518;1256;140008;-69
2023/07/15 01:04:34;;;;;;;10.20;6.30;;;;;;;13.37;70.93;99829.92;218037;1256;140613;-69
2023/07/15 01:09:38;;;;;;;8.90;6.10;;;;;;;13.43;70.98;99820.52;218976;1257;139667;-74
2023/07/15 01:14:44;;;;;;;6.90;5.20;;;;;;;13.44;71.14;99818.48;220492;1256;140965;-74
2023/07/15 01:19:49;;;;;;;7.90;5.10;;;;;;;13.43;71.36;99816.08;220464;1256;139334;-75
2023/07/15 01:24:53;;;;;;;7.00;5.80;;;;;;;13.46;71.19;99805.59;217971;1258;139458;-74
2023/07/15 01:29:56;;;;;;;10.20;6.70;;;;;;;13.46;71.14;99803.30;219636;1257;140217;-74
2023/07/15 01:34:59;;;;;;;6.30;4.90;;;;;;;13.48;71.36;99800.78;219179;1256;140054;-73
2023/07/15 01:40:06;;;;;;;12.40;5.90;;;;;;;13.44;71.44;99799.10;217941;1256;139580;-72
2023/07/15 01:45:09;;;;;;;11.40;6.40;;;;;;;13.41;71.67;99798.66;217730;1256;230931;-73
2023/07/15 01:50:12;;;;;;;5.80;4.70;;;;;;;13.42;71.72;99800.80;217765;1258;139795;-74
2023/07/15 01:55:15;;;;;;;10.10;5.70;;;;;;;13.40;71.80;99801.63;217675;1257;141676;-71
2023/07/15 02:00:20;;;;;;;7.40;5.40;;;;;;;13.38;72.14;99799.30;218601;1256;141045;-73
2023/07/15 02:05:23;;;;;;;8.10;5.40;;;;;;;13.42;72.79;99793.57;218380;1257;140376;-74
2023/07/15 02:10:30;;;;;;;13.10;6.30;;;;;;;13.44;72.44;99790.38;217729;1257;139625;-71
2023/07/15 02:15:34;;;;;;;6.10;4.90;;;;;;;13.42;72.47;99785.33;219191;1256;141230;-77
2023/07/15 02:20:38;;;;;;;7.50;5.30;;;;;;;13.41;73.09;99785.16;217460;1259;140007;-74
2023/07/15 02:25:42;;;;;;;8.00;5.30;;;;;;;13.44;73.20;99783.37;217661;1257;139893;-69
2023/07/15 02:30:46;;;;;;;5.60;4.60;;;;;;;13.45;73.22;99781.48;218727;1256;139730;-69
2023/07/15 02:35:49;;;;;;;5.20;4.70;;;;;;;13.42;73.34;99779.91;217902;1257;139678;-70
2023/07/15 02:40:57;;;;;;;5.70;5.10;;;;;;;13.40;73.24;99782.20;217953;1257;140761;-68
2023/07/15 02:46:05;;;;;;;9.30;5.30;;;;;;;13.41;73.55;99779.79;219515;1256;139733;-69
2023/07/15 02:51:08;;;;;;;5.80;4.60;;;;;;;13.48;73.54;99783.92;218419;1257;139578;-69
2023/07/15 02:56:12;;;;;;;8.60;5.50;;;;;;;13.56;73.64;99781.02;219157;1256;139692;-68
2023/07/15 03:01:17;;;;;;;5.10;4.60;;;;;;;13.62;73.88;99781.39;217665;1259;140155;-67
2023/07/15 03:06:20;;;;;;;4.80;4.40;;;;;;;13.68;73.66;99786.05;218545;1257;139449;-67
2023/07/15 03:11:22;;;;;;;5.90;3.70;;;;;;;13.72;73.55;99790.23;219291;1256;140184;-69
2023/07/15 03:16:26;;;;;;;5.30;4.80;;;;;;;13.74;73.77;99790.15;220163;1255;141671;-70
2023/07/15 03:21:29;;;;;;;5.80;4.40;;;;;;;13.81;73.93;99783.96;220350;1255;140456;-70
2023/07/15 03:26:32;;;;;;;5.20;4.00;;;;;;;13.91;73.90;99780.09;219520;1257;140234;-69
2023/07/15 03:31:36;;;;;;;9.50;5.30;;;;;;;14.03;74.16;99778.96;219906;1256;139736;-70
2023/07/15 03:36:39;;;;;;;5.20;4.70;;;;;;;14.23;74.53;99774.49;219611;1256;140868;-69
2023/07/15 03:41:42;;;;;;;4.70;4.20;;;;;;;14.47;74.22;99770.56;219734;1256;140150;-68
2023/07/15 03:46:46;;;;;;;6.60;4.50;;;;;;;14.71;74.27;99768.48;219056;1256;141518;-69
2023/07/15 03:51:50;;;;;;;5.20;4.30;;;;;;;14.93;74.15;99765.10;218956;1255;140923;-69
2023/07/15 03:56:53;;;;;;;5.80;5.20;;;;;;;15.14;74.10;99753.52;218730;1256;139793;-68
2023/07/15 04:01:55;;;;;;;4.70;4.20;;;;;;;15.37;73.90;99749.23;217781;1257;139765;-72
2023/07/15 04:06:59;;;;;;;4.50;4.10;;;;;;;15.68;73.85;99747.41;218548;1256;139481;-70
2023/07/15 04:12:03;;;;;;;11.70;3.90;;;;;;;16.10;73.49;99747.04;218568;1256;139867;-70
2023/07/15 04:17:09;;;;;;;7.10;3.70;;;;;;;16.59;72.78;99752.92;218213;1256;139753;-70
2023/07/15 04:22:13;;;;;;;3.20;2.80;;;;;;;17.13;71.49;99753.05;218328;1256;141474;-70
2023/07/15 04:27:16;;;;;;;3.70;3.10;;;;;;;17.73;70.10;99756.67;217614;1260;139851;-67
2023/07/15 04:32:19;;;;;;;6.30;3.80;;;;;;;18.51;68.51;99757.77;218029;1256;139816;-70
2023/07/15 04:37:24;;;;;;;3.80;3.40;;;;;;;18.93;67.05;99760.23;217978;1256;140407;-70
2023/07/15 04:42:27;;;;;;;4.00;3.60;;;;;;;18.89;66.10;99761.33;217989;1256;139549;-71
2023/07/15 04:47:32;;;;;;;4.30;3.90;;;;;;;18.90;65.13;99757.74;218029;1257;139332;-71
2023/07/15 04:52:34;;;;;;;4.00;3.40;;;;;;;19.10;64.57;99755.00;217725;1256;140031;-70
2023/07/15 04:57:37;;;;;;;5.00;4.20;;;;;;;19.66;63.51;99753.40;218599;1256;140231;-70
2023/07/15 05:02:42;;;;;;;6.60;4.20;;;;;;;20.00;62.75;99747.98;217739;1257;139978;-67
2023/07/15 05:07:45;;;;;;;8.90;4.10;;;;;;;20.31;61.63;99747.77;219232;1256;139449;-71
2023/07/15 05:13:01;;;;;;;5.50;4.50;;;;;;;20.72;60.48;99749.38;218615;1256;140118;-70
2023/07/15 05:18:05;;;;;;;4.20;3.90;;;;;;;21.78;59.35;99746.33;220389;1255;138721;-71
2023/07/15 05:23:07;;;;;;;4.30;3.90;;;;;;;23.01;57.39;99740.19;218584;1257;139270;-70
2023/07/15 05:28:11;;;;;;;6.20;4.00;;;;;;;26.04;54.15;99739.77;220203;1255;139045;-71
2023/07/15 05:33:14;;;;;;;5.80;3.80;;;;;;;28.56;50.42;99736.17;218920;1256;139966;-71
2023/07/15 05:38:18;;;;;;;6.70;4.30;;;;;;;30.71;46.90;99744.11;218703;1256;138999;-72
2023/07/15 05:43:21;;;;;;;4.40;3.40;;;;;;;32.01;43.82;99744.80;218659;1256;139925;-71
2023/07/15 05:48:24;;;;;;;4.50;2.60;;;;;;;33.07;41.77;99753.60;218554;1257;138892;-69
2023/07/15 05:53:27;;;;;;;7.00;3.20;;;;;;;33.69;39.32;99755.10;217887;1259;139695;-71
2023/07/15 05:58:30;;;;;;;3.10;2.30;;;;;;;33.77;38.39;99754.83;218555;1256;138973;-71
2023/07/15 06:03:34;;;;;;;4.30;3.50;;;;;;;34.21;37.32;99753.84;217994;1259;138768;-71
2023/07/15 06:08:38;;;;;;;2.90;2.70;;;;;;;35.56;36.09;99755.42;218541;1255;140417;-72
2023/07/15 06:13:40;;;;;;;2.60;2.40;;;;;;;36.20;33.93;99755.90;217915;1257;139710;-72
2023/07/15 06:18:44;;;;;;;3.10;2.80;;;;;;;35.96;33.54;99751.23;218680;1256;139854;-72
2023/07/15 06:23:47;;;;;;;3.20;2.90;;;;;;;36.62;33.36;99748.29;217737;1257;140744;-72
2023/07/15 06:28:50;;;;;;;3.50;2.60;;;;;;;36.94;32.40;99747.52;217865;1255;138886;-71
2023/07/15 06:33:53;;;;;;;;;;;;;;;37.71;31.52;99755.09;218474;1257;140827;-72
2023/07/15 06:38:56;;;;;;;;;;;;;;;37.75;30.67;99749.15;218905;1256;125229;-71
2023/07/15 06:44:00;;;;;;;4.10;2.30;;;;;;;37.13;30.27;99751.17;219355;1256;125239;-73
2023/07/15 06:49:02;;;;;;;3.30;1.90;;;;;;;35.32;30.71;99755.41;218205;1257;143396;-73
2023/07/15 06:54:05;;;;;;;4.10;3.70;;;;;;;34.08;31.55;99753.42;218005;1257;138342;-72
2023/07/15 06:59:08;;;;;;;5.80;3.40;;;;;;;33.81;32.28;99746.55;219557;1256;138737;-71
2023/07/15 07:04:11;;;;;;;3.00;2.50;;;;;;;33.94;32.86;99742.17;218347;1256;138651;-72
2023/07/15 07:09:16;;;;;;;2.00;1.90;;;;;;;34.56;32.64;99739.63;218340;1257;140266;-72
2023/07/15 07:14:19;;;;;;;;;;;;;;;35.52;32.16;99736.85;220608;1259;139089;-73
2023/07/15 07:19:22;;;;;;;3.90;2.30;;;;;;;36.45;31.90;99734.30;220815;1256;125249;-72
2023/07/15 07:24:25;;;;;;;3.00;1.90;;;;;;;37.15;30.58;99730.23;219497;1257;139596;-72
2023/07/15 07:29:29;;;;;;;4.20;1.90;;;;;;;37.57;30.57;99731.79;218316;1256;139008;-72
2023/07/15 07:34:33;;;;;;;;;;;;;;;37.78;30.60;99736.23;217794;1257;138545;-71
2023/07/15 07:39:36;;;;;;;3.70;2.90;;;;;;;37.53;30.06;99727.25;218195;1256;125085;-71
2023/07/15 07:44:39;;;;;;;;;;;;;;;36.90;30.18;99729.07;218417;1257;139233;-71
2023/07/15 07:49:42;;;;;;;5.60;2.80;;;;;;;36.73;30.61;99727.98;218750;1257;125584;-71
2023/07/15 07:54:47;;;;;;;4.30;2.40;;;;;;;36.02;30.45;99724.61;217876;1259;139587;-71
2023/07/15 07:59:50;;;;;;;;;;;;;;;35.53;30.63;99730.57;219249;1257;139411;-74
2023/07/15 08:04:53;;;;;;;4.20;2.50;;;;;;;34.92;31.77;99725.39;218251;1257;125039;-71
2023/07/15 08:09:56;;;;;;;3.60;3.10;;;;;;;34.84;31.99;99716.62;218487;1259;139156;-70
2023/07/15 08:14:59;;;;;;;2.90;2.80;;;;;;;34.67;32.08;99710.67;217964;1259;139897;-71
2023/07/15 08:20:04;;;;;;;3.80;3.00;;;;;;;34.46;32.50;99708.41;217902;1257;138510;-70
2023/07/15 08:25:08;;;;;;;4.10;2.90;;;;;;;34.52;32.78;99699.71;218246;1257;139666;-71
2023/07/15 08:30:11;;;;;;;;;;;;;;;34.49;32.40;99698.85;217313;1257;784418;-72
2023/07/15 08:35:15;;;;;;;3.10;2.60;;;;;;;34.36;32.52;99698.53;218311;1260;125143;-70
2023/07/15 08:40:18;;;;;;;6.70;2.80;;;;;;;34.36;31.92;99701.36;218938;1259;140089;-71
2023/07/15 08:45:22;;;;;;;;;;;;;;;33.87;31.67;99703.35;218794;1257;139839;-70
2023/07/15 08:50:32;;;;;;;2.70;2.50;;;;;;;33.69;32.24;99696.57;219108;1257;125589;-71
2023/07/15 08:55:38;;;;;;;2.00;1.90;;;;;;;33.88;32.63;99698.00;217878;1259;138792;-71
2023/07/15 09:00:41;;;;;;;2.50;2.20;;;;;;;34.07;32.56;99693.98;219226;1256;138802;-71
2023/07/15 09:05:45;;;;;;;3.20;2.50;;;;;;;33.79;32.42;99692.27;218109;1257;139580;-71
2023/07/15 09:10:53;;;;;;;3.30;2.70;;;;;;;33.93;32.82;99694.44;220625;1256;138331;-72
2023/07/15 09:15:57;;;;;;;3.00;2.30;;;;;;;34.01;32.47;99690.98;219354;1256;138839;-71
2023/07/15 09:21:15;;;;;;;2.50;2.20;;;;;;;34.13;32.61;99685.14;219491;1256;139501;-72
2023/07/15 09:26:19;;;;;;;2.80;2.60;;;;;;;34.38;32.02;99680.50;218275;1257;139808;-71
2023/07/15 09:31:26;;;;;;;2.80;2.50;;;;;;;33.94;31.03;99677.54;219364;1257;138905;-72
2023/07/15 09:36:31;;;;;;;2.30;2.20;;;;;;;33.73;31.51;99672.49;218099;1256;139623;-70
2023/07/15 09:41:35;;;;;;;3.40;2.40;;;;;;;33.82;31.46;99675.79;218116;1256;138961;-71
2023/07/15 09:46:40;;;;;;;2.60;2.50;;;;;;;33.96;31.30;99669.09;218660;1256;138614;-71
2023/07/15 09:51:48;;;;;;;6.00;2.60;;;;;;;34.17;31.11;99671.48;217816;1257;139438;-70
2023/07/15 09:56:56;;;;;;;2.30;2.10;;;;;;;34.05;30.95;99665.30;219372;1257;139257;-71
2023/07/15 10:02:10;;;;;;;2.00;1.80;;;;;;;34.01;30.40;99658.10;217758;1257;139982;-70
2023/07/15 10:07:15;;;;;;;2.70;2.50;;;;;;;34.27;30.36;99658.67;217934;1255;138995;-72
2023/07/15 10:12:19;;;;;;;3.90;2.20;;;;;;;34.46;30.69;99651.56;218059;1256;138732;-70
2023/07/15 10:17:23;;;;;;;2.10;1.60;;;;;;;34.41;30.44;99645.80;217828;1257;138895;-71
2023/07/15 10:22:34;;;;;;;4.40;2.00;;;;;;;34.47;30.31;99641.28;217888;1259;139550;-71
2023/07/15 10:27:38;;;;;;;2.60;2.40;;;;;;;34.43;29.01;99639.77;218575;1256;139883;-72
2023/07/15 10:33:05;;;;;;;5.50;2.00;;;;;;;34.51;29.10;99644.99;218013;1259;139231;-70
2023/07/15 10:38:23;;;;;;;2.70;2.50;;;;;;;34.55;29.05;99644.58;217756;1256;139472;-71
2023/07/15 10:43:35;;;;;;;5.30;2.50;;;;;;;34.31;29.34;99644.83;218080;1256;138206;-70
2023/07/15 10:48:39;;;;;;;2.30;2.10;;;;;;;34.44;29.50;99638.44;218525;1257;138630;-71
2023/07/15 10:53:44;;;;;;;2.30;2.20;;;;;;;34.60;29.32;99636.19;218116;1257;138861;-71
2023/07/15 10:58:49;;;;;;;3.80;2.40;;;;;;;34.40;29.01;99632.11;219626;1256;138892;-71
2023/07/15 11:04:04;;;;;;;2.30;2.10;;;;;;;34.04;28.90;99629.50;218105;1257;139463;-71
2023/07/15 11:09:19;;;;;;;2.00;1.90;;;;;;;34.04;28.56;99621.91;217842;1259;139678;-70
2023/07/15 11:14:25;;;;;;;;;;;;;;;34.05;28.23;99622.39;220386;1259;140176;-71
2023/07/15 11:19:29;;;;;;;3.00;2.40;;;;;;;33.81;27.74;99620.46;220632;1257;125251;-73
2023/07/15 11:24:33;;;;;;;2.90;2.50;;;;;;;33.57;28.28;99615.62;218549;1256;138950;-73
2023/07/15 11:29:37;;;;;;;1.90;1.80;;;;;;;33.67;28.52;99605.02;218349;1257;139794;-71
2023/07/15 11:34:46;;;;;;;2.20;2.10;;;;;;;33.81;28.68;99606.11;219951;1256;139397;-72
2023/07/15 11:39:59;;;;;;;2.90;2.10;;;;;;;33.86;28.77;99599.16;218224;1257;139282;-71
2023/07/15 11:45:08;;;;;;;3.40;2.20;;;;;;;33.94;28.02;99593.46;218877;1257;139294;-71
2023/07/15 11:50:15;;;;;;;2.30;2.00;;;;;;;33.96;27.79;99587.39;218483;1259;138894;-70
2023/07/15 11:55:28;;;;;;;5.70;2.80;;;;;;;34.01;27.46;99583.90;217868;1259;139130;-71
2023/07/15 12:00:36;;;;;;;2.90;2.60;;;;;;;34.06;27.65;99585.57;218080;1256;138987;-71
2023/07/15 12:05:43;;;;;;;2.60;2.40;;;;;;;34.16;28.48;99577.50;218050;1257;139290;-73
2023/07/15 12:10:50;;;;;;;2.10;2.00;;;;;;;34.18;27.87;99580.34;218032;1257;138994;-71
2023/07/15 12:15:55;;;;;;;2.50;2.20;;;;;;;33.92;27.63;99576.17;217562;1257;139347;-71
2023/07/15 12:20:59;;;;;;;5.90;2.70;;;;;;;33.73;27.74;99570.14;218061;1257;139437;-72
2023/07/15 12:26:03;;;;;;;;;;;;;;;33.84;27.77;99569.61;218314;1256;139177;-70
2023/07/15 12:31:06;;;;;;;2.30;2.10;;;;;;;34.00;27.55;99566.52;218691;1260;126376;-70
2023/07/15 12:36:12;;;;;;;3.00;2.20;;;;;;;34.14;27.10;99562.56;219025;1259;138784;-71
2023/07/15 12:41:16;;;;;;;2.20;2.10;;;;;;;34.11;27.04;99559.80;218854;1256;140876;-72
2023/07/15 12:46:19;;;;;;;3.60;2.40;;;;;;;34.00;26.79;99547.33;217837;1256;140044;-69
2023/07/15 12:51:23;;;;;;;2.50;2.30;;;;;;;33.81;26.89;99552.77;220399;1257;139134;-73
2023/07/15 12:56:27;;;;;;;4.90;2.80;;;;;;;33.77;27.06;99547.16;218517;1260;140149;-70
2023/07/15 13:01:30;;;;;;;2.60;1.90;;;;;;;33.80;27.14;99541.71;219955;1257;139076;-73
2023/07/15 13:06:34;;;;;;;2.40;2.20;;;;;;;33.66;27.53;99545.65;219247;1256;139646;-68
2023/07/15 13:11:38;;;;;;;10.10;3.40;;;;;;;33.64;27.92;99537.67;220404;1257;139430;-68
2023/07/15 13:16:41;;;;;;;2.80;2.50;;;;;;;33.78;28.25;99535.23;220503;1257;140314;-69
2023/07/15 13:21:45;;;;;;;2.80;2.50;;;;;;;33.90;27.91;99535.02;218962;1256;139422;-66
2023/07/15 13:26:48;;;;;;;;;;;;;;;33.94;27.75;99536.20;220117;1257;139066;-68
2023/07/15 13:31:50;;;;;;;2.70;2.50;;;;;;;33.88;27.77;99539.36;218633;1260;125756;-75
2023/07/15 13:36:54;;;;;;;8.50;3.20;;;;;;;33.80;27.61;99532.48;218577;1259;140413;-75
2023/07/15 13:41:58;;;;;;;3.70;2.50;;;;;;;33.65;28.17;99527.95;218617;1260;139407;-71
2023/07/15 13:47:05;;;;;;;6.60;2.70;;;;;;;33.70;28.09;99526.29;217843;1259;231099;-68
2023/07/15 13:52:10;;;;;;;2.20;2.10;;;;;;;33.73;28.15;99522.10;217519;1256;139678;-73
2023/07/15 13:57:15;;;;;;;11.90;3.00;;;;;;;33.57;28.24;99521.95;218206;1257;139845;-68
2023/07/15 14:02:19;;;;;;;4.30;2.50;;;;;;;33.45;28.23;99518.95;217789;1260;139479;-73
2023/07/15 14:07:23;;;;;;;3.20;2.30;;;;;;;33.36;28.52;99519.88;218154;1260;150961;-73
2023/07/15 14:12:27;;;;;;;2.60;2.40;;;;;;;33.39;28.21;99516.95;217680;1259;139654;-76
2023/07/15 14:17:33;;;;;;;2.50;2.20;;;;;;;33.25;28.31;99509.68;217711;1257;138746;-74
2023/07/15 14:22:37;;;;;;;2.40;2.30;;;;;;;33.27;28.45;99504.73;217762;1258;138885;-71
2023/07/15 14:27:53;;;;;;;3.30;2.50;;;;;;;33.40;28.44;99508.59;217744;1257;139328;-75
2023/07/15 14:32:57;;;;;;;2.60;2.30;;;;;;;33.43;28.40;99502.92;217575;1262;138853;-75
2023/07/15 14:38:01;;;;;;;2.80;2.30;;;;;;;33.40;28.39;99503.23;217526;1261;139522;-73
2023/07/15 14:43:04;;;;;;;3.20;2.90;;;;;;;33.32;28.24;99504.88;219770;1259;139087;-75
2023/07/15 14:48:06;;;;;;;4.90;2.20;;;;;;;33.22;28.32;99503.43;217718;1258;139198;-75
2023/07/15 14:53:10;;;;;;;2.30;2.20;;;;;;;33.24;28.41;99500.35;220498;1260;139119;-68
2023/07/15 14:58:12;;;;;;;6.40;2.30;;;;;;;33.27;28.65;99495.57;220552;1258;139667;-69
2023/07/15 15:03:16;;;;;;;7.40;3.10;;;;;;;33.37;28.52;99495.48;219837;1257;139486;-68
2023/07/15 15:08:19;;;;;;;2.90;2.70;;;;;;;33.32;28.46;99492.02;218024;1260;138783;-69
2023/07/15 15:13:22;;;;;;;2.20;2.00;;;;;;;33.20;28.72;99484.56;220251;1257;139718;-68
2023/07/15 15:18:26;;;;;;;2.60;2.40;;;;;;;33.12;28.95;99485.64;220083;1257;139597;-68
2023/07/15 15:23:30;;;;;;;;;;;;;;;33.09;28.97;99475.77;218707;1257;139518;-74
2023/07/15 15:28:34;;;;;;;2.70;2.00;;;;;;;33.06;28.96;99471.83;219786;1256;125648;-72
2023/07/15 15:33:38;;;;;;;;;;;;;;;33.08;29.20;99470.41;218503;1258;139029;-73
2023/07/15 15:38:42;;;;;;;6.50;2.80;;;;;;;33.00;28.92;99464.48;218096;1261;126069;-68
2023/07/15 15:43:46;;;;;;;4.20;2.70;;;;;;;32.89;28.85;99461.87;217780;1261;138957;-72
2023/07/15 15:48:49;;;;;;;2.50;2.40;;;;;;;32.73;28.46;99461.65;217922;1260;138904;-71
2023/07/15 15:54:01;;;;;;;3.40;2.50;;;;;;;32.61;28.32;99460.97;218469;1260;139342;-70
2023/07/15 15:59:05;;;;;;;5.40;2.80;;;;;;;32.53;28.52;99461.58;218106;1260;139371;-69
2023/07/15 16:04:08;;;;;;;3.20;2.40;;;;;;;32.56;28.92;99460.71;217543;1257;140349;-69
2023/07/15 16:09:12;;;;;;;2.80;2.60;;;;;;;32.47;28.99;99459.33;218243;1256;138923;-70
2023/07/15 16:14:15;;;;;;;5.90;3.10;;;;;;;32.40;28.98;99458.44;218264;1257;139183;-71
2023/07/15 16:19:25;;;;;;;3.40;2.80;;;;;;;32.29;28.89;99453.91;218541;1260;205179;-71
2023/07/15 16:24:30;;;;;;;5.80;3.00;;;;;;;32.29;28.87;99459.27;218359;1257;140754;-69
2023/07/15 16:29:33;;;;;;;12.20;3.40;;;;;;;32.24;29.10;99454.35;217899;1258;139163;-70
2023/07/15 16:34:37;;;;;;;5.70;3.00;;;;;;;32.15;29.22;99448.59;218584;1257;139631;-70
2023/07/15 16:39:41;;;;;;;3.80;2.60;;;;;;;32.06;29.09;99446.52;218152;1260;140228;-68
2023/07/15 16:44:45;;;;;;;4.10;3.00;;;;;;;32.00;28.89;99446.48;217846;1260;139391;-70
2023/07/15 16:49:50;;;;;;;2.30;2.20;;;;;;;31.91;28.70;99448.08;220458;1257;138567;-72
2023/07/15 16:54:57;;;;;;;2.60;2.40;;;;;;;31.85;28.72;99452.52;220269;1257;139912;-72
2023/07/15 17:00:01;;;;;;;3.70;2.50;;;;;;;31.74;28.54;99448.61;220449;1256;140514;-72
2023/07/15 17:05:06;;;;;;;3.50;3.00;;;;;;;31.61;28.83;99452.25;220373;1256;139794;-80
2023/07/15 17:10:13;;;;;;;3.00;2.10;;;;;;;31.55;29.28;99459.06;220271;1257;139525;-74
2023/07/15 17:17:32;;;;;;;3.10;2.40;;;;;;;31.42;29.38;99462.11;215187;1296;636885;-73
2023/07/15 17:22:41;;;;;;;3.10;2.70;;;;;;;31.19;29.48;99458.68;217863;1261;138485;-71
2023/07/15 17:27:52;;;;;;;3.40;3.10;;;;;;;31.00;29.63;99452.98;216588;1256;1121164;-71
2023/07/15 17:33:00;;;;;;;4.90;3.00;;;;;;;30.82;31.55;99448.30;218657;1256;138376;-76
2023/07/15 17:38:09;;;;;;;2.40;2.30;;;;;;;30.58;31.94;99448.11;219090;1256;138749;-73
2023/07/15 17:43:14;;;;;;;3.30;3.10;;;;;;;30.41;32.65;99442.54;218674;1259;138324;-76
2023/07/15 17:48:23;;;;;;;3.50;3.00;;;;;;;30.20;33.99;99443.16;217971;1255;137940;-80
2023/07/15 17:53:31;;;;;;;3.30;3.00;;;;;;;29.97;34.95;99440.69;218290;1256;139119;-80
2023/07/15 17:58:37;;;;;;;3.90;2.90;;;;;;;29.68;35.62;99439.23;218027;1257;140098;-80
2023/07/15 18:03:46;;;;;;;3.00;2.80;;;;;;;29.40;36.46;99439.41;217847;1256;138803;-74
2023/07/15 18:08:54;;;;;;;15.70;4.40;;;;;;;29.13;36.88;99447.81;218426;1259;138662;-68
2023/07/15 18:14:00;;;;;;;3.40;2.90;;;;;;;28.89;38.19;99452.55;218763;1257;139214;-68
2023/07/15 18:19:06;;;;;;;3.50;3.20;;;;;;;28.64;39.32;99456.82;217981;1257;139185;-67
2023/07/15 18:24:12;;;;;;;3.60;3.10;;;;;;;28.37;40.18;99458.70;218945;1256;140171;-68
2023/07/15 18:29:18;;;;;;;8.00;3.40;;;;;;;28.09;40.71;99462.92;219283;1256;138904;-69
2023/07/15 18:34:24;;;;;;;5.10;3.10;;;;;;;27.79;41.38;99459.52;218808;1256;139414;-68
2023/07/15 18:39:31;;;;;;;3.30;3.10;;;;;;;27.51;42.25;99466.58;219375;1257;139510;-68
2023/07/15 18:44:37;;;;;;;17.90;3.20;;;;;;;27.23;42.95;99469.77;218631;1256;140320;-68
2023/07/15 18:49:45;;;;;;;4.20;3.60;;;;;;;26.96;43.75;99468.37;218802;1259;138696;-67
2023/07/15 18:54:57;;;;;;;5.20;3.40;;;;;;;26.68;44.33;99466.58;219379;1256;139183;-74
2023/07/15 19:00:05;;;;;;;4.90;3.50;;;;;;;26.40;44.77;99467.40;219382;1256;138933;-71
2023/07/15 19:05:14;;;;;;;6.80;3.40;;;;;;;26.12;45.08;99469.23;218931;1256;139281;-76
2023/07/15 19:10:24;;;;;;;5.20;3.90;;;;;;;25.79;44.95;99476.75;220379;1256;139022;-77
2023/07/15 19:15:35;;;;;;;5.40;3.70;;;;;;;25.54;45.65;99474.33;217875;1257;138958;-77
2023/07/15 19:20:41;;;;;;;4.30;3.50;;;;;;;25.32;46.18;99477.16;219217;1256;231845;-72
2023/07/15 19:25:46;;;;;;;5.50;4.10;;;;;;;25.11;46.65;99483.31;218532;1256;138853;-69
2023/07/15 19:30:52;;;;;;;7.20;3.90;;;;;;;24.88;47.25;99490.96;218499;1257;138923;-69
2023/07/15 19:35:57;;;;;;;8.40;3.50;;;;;;;24.68;47.73;99496.19;219028;1260;140282;-71
2023/07/15 19:41:02;;;;;;;4.20;3.90;;;;;;;24.51;47.68;99491.19;217960;1256;140676;-69
2023/07/15 19:46:10;;;;;;;4.20;3.80;;;;;;;24.34;47.87;99492.65;218137;1257;138796;-70
2023/07/15 19:51:15;;;;;;;22.30;5.90;;;;;;;24.16;48.27;99493.50;217788;1256;139660;-69
2023/07/15 19:56:34;;;;;;;10.00;4.60;;;;;;;24.00;48.84;99493.42;218464;1258;204194;-69
2023/07/15 20:01:40;;;;;;;12.90;5.20;;;;;;;23.88;49.26;99492.48;218164;1257;139512;-70
2023/07/15 20:06:45;;;;;;;4.80;4.00;;;;;;;23.78;49.39;99494.29;218182;1256;138970;-74
2023/07/15 20:11:54;;;;;;;4.50;4.10;;;;;;;23.70;49.69;99495.56;218247;1256;140307;-72
2023/07/15 20:16:59;;;;;;;5.20;4.80;;;;;;;23.64;50.08;99496.89;217903;1260;138846;-70
2023/07/15 20:22:07;;;;;;;4.60;4.20;;;;;;;23.57;50.44;99494.33;217580;1257;139352;-67
2023/07/15 20:27:13;;;;;;;7.00;4.00;;;;;;;23.47;50.88;99486.29;218101;1257;139551;-70
2023/07/15 20:32:19;;;;;;;5.70;4.90;;;;;;;23.37;50.85;99489.23;218364;1257;138938;-70
2023/07/15 20:37:24;;;;;;;6.30;5.10;;;;;;;23.31;50.74;99486.46;218528;1257;138688;-71
2023/07/15 20:42:28;;;;;;;6.10;5.10;;;;;;;23.28;51.01;99480.10;217757;1257;139338;-70
2023/07/15 20:47:42;;;;;;;5.50;5.00;;;;;;;23.25;50.71;99482.32;217795;1257;139459;-69
2023/07/15 20:52:47;;;;;;;5.00;4.40;;;;;;;23.25;50.73;99481.69;220566;1256;139240;-71
2023/07/15 20:57:51;;;;;;;6.80;5.10;;;;;;;23.24;50.78;99474.97;219514;1257;138450;-72
2023/07/15 21:02:55;;;;;;;6.10;5.50;;;;;;;23.22;50.99;99470.54;217789;1257;138336;-71
2023/07/15 21:08:00;;;;;;;5.70;4.80;;;;;;;23.21;50.67;99477.52;218808;1256;219280;-71
2023/07/15 21:13:05;;;;;;;6.40;5.80;;;;;;;23.21;50.71;99473.84;220575;1256;139888;-71
2023/07/15 21:18:10;;;;;;;5.20;4.80;;;;;;;23.21;50.94;99474.39;218803;1257;138865;-71
2023/07/15 21:23:16;;;;;;;5.80;5.30;;;;;;;23.17;51.03;99473.71;218246;1257;140648;-69
2023/07/15 21:28:42;;;;;;;5.90;5.40;;;;;;;23.13;50.93;99470.59;218604;1256;139170;-69
2023/07/15 21:33:48;;;;;;;5.80;5.30;;;;;;;23.08;51.21;99475.66;218453;1257;139615;-69
2023/07/15 21:38:53;;;;;;;6.80;5.80;;;;;;;23.03;51.60;99474.70;217765;1257;138798;-68
2023/07/15 21:43:58;;;;;;;6.20;5.30;;;;;;;22.95;51.84;99473.66;217922;1260;138264;-69
2023/07/15 21:49:02;;;;;;;8.40;5.50;;;;;;;22.88;51.98;99473.08;217645;1260;139183;-69
2023/07/15 21:54:07;;;;;;;6.40;5.80;;;;;;;22.84;52.21;99474.59;217973;1257;140841;-71
2023/07/15 21:59:12;;;;;;;8.30;5.50;;;;;;;22.80;52.43;99477.15;218379;1257;138702;-70
2023/07/15 22:04:17;;;;;;;7.80;5.60;;;;;;;22.77;52.44;99482.66;218023;1260;138616;-72
2023/07/15 22:09:22;;;;;;;6.20;5.60;;;;;;;22.76;52.56;99485.86;217920;1257;138733;-70
2023/07/15 22:14:26;;;;;;;7.60;6.50;;;;;;;22.75;52.76;99486.30;218677;1257;138750;-72
2023/07/15 22:19:31;;;;;;;6.70;5.70;;;;;;;22.73;52.95;99491.31;218646;1257;138538;-72
2023/07/15 22:24:36;;;;;;;6.90;6.30;;;;;;;22.70;53.18;99488.34;218895;1259;138885;-70
2023/07/15 22:29:40;;;;;;;5.70;5.30;;;;;;;22.69;53.22;99489.11;217967;1257;138702;-69
2023/07/15 22:34:45;;;;;;;6.50;5.90;;;;;;;22.65;53.33;99490.80;219154;1257;139352;-68
2023/07/15 22:39:50;;;;;;;6.10;5.50;;;;;;;22.60;53.38;99486.64;219388;1257;138870;-68
2023/07/15 22:44:54;;;;;;;7.10;5.80;;;;;;;22.56;53.53;99487.37;217993;1257;138845;-68
2023/07/15 22:50:00;;;;;;;7.90;6.60;;;;;;;22.53;53.63;99491.46;218535;1257;139188;-68
2023/07/15 22:55:04;;;;;;;6.40;5.80;;;;;;;22.49;53.80;99491.36;218163;1257;138477;-68
2023/07/15 23:00:09;;;;;;;5.70;5.10;;;;;;;22.43;53.84;99493.88;220525;1256;139856;-69
2023/07/15 23:05:13;;;;;;;8.20;6.30;;;;;;;22.39;54.09;99491.28;220541;1257;138614;-69
2023/07/15 23:10:17;;;;;;;5.50;5.10;;;;;;;22.37;54.19;99492.27;219748;1256;139555;-69
2023/07/15 23:15:22;;;;;;;7.10;6.40;;;;;;;22.33;54.34;99483.33;218903;1257;138821;-70
2023/07/15 23:20:27;;;;;;;6.70;6.10;;;;;;;22.28;54.30;99480.02;218586;1257;139037;-69
2023/07/15 23:25:33;;;;;;;6.60;6.00;;;;;;;22.24;54.60;99483.04;217842;1257;140121;-69
2023/07/15 23:30:38;;;;;;;5.70;5.30;;;;;;;22.17;54.68;99482.74;219234;1257;139874;-71